Brownton, Minnesota
Current Conditions -  °F | °C
As of 10:12 AM on Thursday 27 Nov 2014 (Local Time) from KHCD Reporting Station
Clear Clear  
Wind Chill:   Ceiling: Unl
Heat Index:   Visibility: 10mi
Dew Point: -6°   Wind: 3mph
Humidity: 76%   Direction: 310°NW
Pressure: 30.52"   Gusts: NA
Location:  44.73°N, 94.35°W
Report Text: KHCD 271612Z AUTO 31003KT 10SM CLR M18/M21 A3052 RMK AO2 T11771210
Loading
Personal Weather Stations






























Interactive Weather Map New forecast layout! Learn more

10-Day Weather Forecast

Advertisements
Track Severe Weather on mobile